createdAt,value
2018-06-25T00:03:57.041Z,2.78
2018-06-25T00:09:52.095Z,2.28
2018-06-25T00:15:47.083Z,2.42
2018-06-25T00:21:42.145Z,2.61
2018-06-25T00:27:37.087Z,2.19
2018-06-25T00:33:32.057Z,2.5
2018-06-25T00:39:27.071Z,2.15
2018-06-25T00:45:22.095Z,2.49
2018-06-25T00:51:17.096Z,2.34
2018-06-25T00:57:12.104Z,2.3
2018-06-25T01:03:07.084Z,2.24
2018-06-25T01:09:02.105Z,2.46
2018-06-25T01:14:57.114Z,2.31
2018-06-25T01:20:52.094Z,2.21
2018-06-25T01:26:47.083Z,2.34
2018-06-25T01:32:42.115Z,2.58
2018-06-25T01:38:37.140Z,2.3
2018-06-25T01:44:32.128Z,2.43
2018-06-25T01:50:27.120Z,2.11
2018-06-25T01:56:22.184Z,2.36
2018-06-25T02:02:17.143Z,2.56
2018-06-25T02:08:12.132Z,2.53
2018-06-25T02:14:07.176Z,3.45
2018-06-25T02:20:02.155Z,2.61
2018-06-25T02:25:57.187Z,2.69
2018-06-25T02:31:52.122Z,2.77
2018-06-25T02:37:47.143Z,2.38
2018-06-25T02:43:42.258Z,2.34
2018-06-25T02:49:37.149Z,2.76
2018-06-25T02:55:32.131Z,2.42
2018-06-25T03:01:27.172Z,2.56
2018-06-25T03:07:22.213Z,2.4
2018-06-25T03:13:17.213Z,2.47
2018-06-25T03:19:12.155Z,2.83
2018-06-25T03:25:07.165Z,2.47
2018-06-25T03:31:02.193Z,2.64
2018-06-25T03:36:57.175Z,2.52
2018-06-25T03:42:52.200Z,2.96
2018-06-25T03:48:47.166Z,2.9
2018-06-25T03:54:42.203Z,2.47
2018-06-25T04:00:37.243Z,3.04
2018-06-25T04:06:32.208Z,2.71
2018-06-25T04:12:27.251Z,3.09
2018-06-25T04:18:22.226Z,2.57
2018-06-25T04:24:17.295Z,2.6
2018-06-25T04:30:12.246Z,2.97
2018-06-25T04:36:07.305Z,2.75
2018-06-25T04:42:02.220Z,3.13
2018-06-25T04:47:57.207Z,2.53
2018-06-25T04:53:52.226Z,2.19
2018-06-25T04:59:47.267Z,13.41
2018-06-25T05:05:42.305Z,21.57
2018-06-25T05:11:37.247Z,14.24
2018-06-25T05:17:32.293Z,12.29
2018-06-25T05:23:27.259Z,6.57
2018-06-25T05:29:22.277Z,9.06
2018-06-25T05:35:17.260Z,4.24
2018-06-25T05:41:12.247Z,4.13
2018-06-25T05:47:07.271Z,3.57
2018-06-25T05:53:02.261Z,3.42
2018-06-25T05:58:57.334Z,3.05
2018-06-25T06:04:52.244Z,4.75
2018-06-25T06:10:47.292Z,4.84
2018-06-25T06:16:42.284Z,3.1
2018-06-25T06:22:37.326Z,2.9
2018-06-25T06:28:32.327Z,2.27
2018-06-25T06:34:27.233Z,1.39
2018-06-25T06:40:22.386Z,2.02
2018-06-25T06:46:17.273Z,1.85
2018-06-25T06:52:12.297Z,1.67
2018-06-25T06:58:07.314Z,2.12
2018-06-25T07:04:02.365Z,1.96
2018-06-25T07:09:57.297Z,1.78
2018-06-25T07:15:52.299Z,2.2
2018-06-25T07:21:47.290Z,2.04
2018-06-25T07:27:42.336Z,3.16
2018-06-25T07:33:37.312Z,2.69
2018-06-25T07:39:32.315Z,3.21
2018-06-25T07:45:27.337Z,2.07
2018-06-25T07:51:22.322Z,2.39
2018-06-25T07:57:17.326Z,2.66
2018-06-25T08:03:12.319Z,2.4
2018-06-25T08:09:07.371Z,2.38
2018-06-25T08:15:02.516Z,2.11
2018-06-25T08:20:57.338Z,1.89
2018-06-25T08:26:52.358Z,2.2
2018-06-25T08:32:47.356Z,2.08
2018-06-25T08:38:42.323Z,2.01
2018-06-25T08:44:37.364Z,2.18
2018-06-25T08:50:32.355Z,2.16
2018-06-25T08:56:27.388Z,2.27
2018-06-25T09:02:22.380Z,1.69
2018-06-25T09:08:17.365Z,1.9
2018-06-25T09:14:12.377Z,2.02
2018-06-25T09:20:07.385Z,1.95
2018-06-25T09:26:02.361Z,1.91
2018-06-25T09:31:57.390Z,1.5
2018-06-25T09:37:52.374Z,1.23
2018-06-25T09:43:47.365Z,1.15
2018-06-25T09:49:42.364Z,1.2
2018-06-25T09:55:37.484Z,2.28
2018-06-25T10:01:32.432Z,2.39
2018-06-25T10:07:27.502Z,3.09
2018-06-25T10:13:22.438Z,1.83
2018-06-25T10:19:17.464Z,1.83
2018-06-25T10:25:12.368Z,2.08
2018-06-25T10:31:07.421Z,1.87
2018-06-25T10:37:02.403Z,2.07
2018-06-25T10:42:57.445Z,1.93
2018-06-25T10:48:52.477Z,2.06
2018-06-25T10:54:47.419Z,1.69
2018-06-25T11:00:42.471Z,2.19
2018-06-25T11:06:37.414Z,1.52
2018-06-25T11:12:32.457Z,1.74
2018-06-25T11:18:27.403Z,1.67
2018-06-25T11:24:22.440Z,1.74
2018-06-25T11:30:17.453Z,1.78
2018-06-25T11:36:12.466Z,1.77
2018-06-25T11:42:07.438Z,1.27
2018-06-25T11:48:02.465Z,1.74
2018-06-25T11:53:57.489Z,1.99
2018-06-25T11:59:52.477Z,1.8
2018-06-25T12:05:47.498Z,2.28
2018-06-25T12:11:42.540Z,1.93
2018-06-25T12:17:37.741Z,1.83
2018-06-25T12:23:32.460Z,1.88
2018-06-25T12:29:27.455Z,1.37
2018-06-25T12:35:22.478Z,1.06
2018-06-25T12:41:17.475Z,1.04
2018-06-25T12:47:12.505Z,1
2018-06-25T12:53:07.504Z,0.63
2018-06-25T12:59:02.513Z,0.72
2018-06-25T13:04:57.516Z,0.72
2018-06-25T13:10:52.560Z,1.04
2018-06-25T13:16:47.510Z,0.99
2018-06-25T13:22:42.585Z,0.75
2018-06-25T13:28:37.559Z,0.41
2018-06-25T13:34:32.545Z,0.54
2018-06-25T13:40:27.517Z,0.54
2018-06-25T13:46:22.524Z,0.48
2018-06-25T13:52:17.545Z,0.38
2018-06-25T13:58:12.520Z,0.52
2018-06-25T14:04:07.592Z,0.5
2018-06-25T14:10:02.554Z,0.46
2018-06-25T14:15:57.592Z,0.45
2018-06-25T14:21:52.534Z,0.43
2018-06-25T14:27:47.548Z,0.5
2018-06-25T14:33:42.609Z,0.5
2018-06-25T14:39:37.528Z,0.53
2018-06-25T14:45:32.567Z,0.6
2018-06-25T14:51:27.608Z,0.59
2018-06-25T14:57:22.568Z,0.61
2018-06-25T15:03:17.555Z,0.73
2018-06-25T15:09:12.602Z,0.63
2018-06-25T15:15:07.629Z,0.57
2018-06-25T15:21:02.570Z,0.64
2018-06-25T15:26:57.553Z,0.5
2018-06-25T15:32:52.572Z,0.6
2018-06-25T15:38:47.588Z,0.61
2018-06-25T15:44:42.623Z,0.7
2018-06-25T15:50:37.609Z,0.79
2018-06-25T15:56:32.617Z,0.62
2018-06-25T16:02:27.621Z,0.68
2018-06-25T16:08:22.620Z,0.5
2018-06-25T16:14:17.627Z,0.6
2018-06-25T16:20:12.607Z,0.67
2018-06-25T16:26:07.613Z,0.56
2018-06-25T16:32:02.656Z,0.59
2018-06-25T16:37:57.613Z,0.6
2018-06-25T16:43:52.661Z,0.63
2018-06-25T16:49:47.627Z,0.69
2018-06-25T16:55:42.659Z,0.58
2018-06-25T17:01:37.672Z,0.68
2018-06-25T17:07:32.710Z,0.59
2018-06-25T17:13:27.619Z,0.71
2018-06-25T17:19:22.714Z,0.7
2018-06-25T17:25:17.658Z,0.58
2018-06-25T17:31:12.726Z,0.75
2018-06-25T17:37:07.658Z,0.67
2018-06-25T17:43:02.652Z,0.78
2018-06-25T17:48:57.719Z,0.5
2018-06-25T17:54:52.693Z,0.72
2018-06-25T18:00:47.671Z,0.58
2018-06-25T18:06:42.703Z,0.69
2018-06-25T18:12:37.734Z,0.61
2018-06-25T18:18:32.681Z,0.7
2018-06-25T18:24:27.685Z,0.58
2018-06-25T18:30:22.701Z,0.57
2018-06-25T18:36:17.685Z,0.73
2018-06-25T18:42:12.681Z,0.6
2018-06-25T18:48:07.751Z,0.78
2018-06-25T18:54:02.692Z,0.58
2018-06-25T18:59:57.713Z,0.54
2018-06-25T19:05:52.719Z,0.66
2018-06-25T19:11:47.707Z,0.68
2018-06-25T19:17:42.745Z,0.79
2018-06-25T19:23:37.794Z,0.75
2018-06-25T19:29:32.734Z,0.66
2018-06-25T19:35:27.728Z,0.85
2018-06-25T19:41:22.734Z,0.94
2018-06-25T19:47:17.780Z,0.69
2018-06-25T19:53:12.741Z,0.7
2018-06-25T19:59:07.726Z,0.73
2018-06-25T20:05:02.741Z,0.73
2018-06-25T20:10:57.724Z,0.74
2018-06-25T20:16:52.845Z,0.78
2018-06-25T20:22:48.020Z,1
2018-06-25T20:28:42.817Z,0.89
2018-06-25T20:34:37.755Z,0.99
2018-06-25T20:40:32.767Z,0.98
2018-06-25T20:46:27.759Z,0.92
2018-06-25T20:52:22.804Z,0.79
2018-06-25T20:58:17.770Z,0.84
2018-06-25T21:04:12.803Z,0.91
2018-06-25T21:10:07.884Z,1.03
2018-06-25T21:16:02.782Z,0.79
2018-06-25T21:21:57.847Z,0.85
2018-06-25T21:27:52.844Z,0.87
2018-06-25T21:33:47.774Z,1.09
2018-06-25T21:39:42.890Z,1.05
2018-06-25T21:45:37.806Z,0.77
2018-06-25T21:51:32.870Z,0.97
2018-06-25T21:57:27.797Z,0.84
2018-06-25T22:03:22.784Z,0.81
2018-06-25T22:09:17.843Z,1.69
2018-06-25T22:15:12.841Z,1.13
2018-06-25T22:21:07.850Z,0.99
2018-06-25T22:27:02.868Z,0.78
2018-06-25T22:32:57.963Z,0.93
2018-06-25T22:38:52.921Z,0.68
2018-06-25T22:44:47.897Z,0.93
2018-06-25T22:50:42.863Z,1.18
2018-06-25T22:56:37.910Z,0.73
2018-06-25T23:02:32.920Z,0.75
2018-06-25T23:08:27.951Z,0.78
2018-06-25T23:14:22.904Z,0.8
2018-06-25T23:20:17.908Z,0.8
2018-06-25T23:26:12.896Z,0.83
2018-06-25T23:32:07.929Z,0.72
2018-06-25T23:38:02.902Z,0.83
2018-06-25T23:43:57.888Z,0.73
2018-06-25T23:49:52.906Z,0.81
2018-06-25T23:55:47.853Z,0.8
